createdAt,value
2018-03-04T00:00:19.497Z,27.5
2018-03-04T00:02:19.240Z,23.1
2018-03-04T00:04:18.980Z,17.6
2018-03-04T00:06:18.968Z,19.3
2018-03-04T00:08:18.691Z,28.5
2018-03-04T00:10:18.842Z,27.4
2018-03-04T00:12:19.582Z,27.2
2018-03-04T00:14:19.312Z,22.2
2018-03-04T00:16:18.757Z,36.2
2018-03-04T00:18:19.571Z,33.8
2018-03-04T00:20:19.322Z,23
2018-03-04T00:22:19.046Z,29.2
2018-03-04T00:24:18.783Z,17.7
2018-03-04T00:26:19.261Z,31.7
2018-03-04T00:28:18.997Z,32
2018-03-04T00:30:18.764Z,31.7
2018-03-04T00:32:19.502Z,32.3
2018-03-04T00:34:19.230Z,33.3
2018-03-04T00:36:19.216Z,28.8
2018-03-04T00:38:18.947Z,23.3
2018-03-04T00:40:19.082Z,29.6
2018-03-04T00:42:18.809Z,30.3
2018-03-04T00:44:19.560Z,27.3
2018-03-04T00:46:19.003Z,23.1
2018-03-04T00:48:18.742Z,23.1
2018-03-04T00:50:19.504Z,28
2018-03-04T00:52:19.230Z,29.3
2018-03-04T00:54:18.968Z,29.9
2018-03-04T00:56:18.926Z,30.4
2018-03-04T00:58:19.679Z,28.8
2018-03-04T01:00:19.428Z,27.2
2018-03-04T01:02:19.171Z,36.7
2018-03-04T01:04:18.912Z,32.7
2018-03-04T01:06:19.382Z,20.8
2018-03-04T01:08:19.111Z,22.1
2018-03-04T01:10:19.251Z,31.2
2018-03-04T01:12:18.991Z,24.7
2018-03-04T01:14:18.719Z,21
2018-03-04T01:16:19.184Z,22
2018-03-04T01:18:18.971Z,26.7
2018-03-04T01:20:18.722Z,33.1
2018-03-04T01:22:19.465Z,16.7
2018-03-04T01:24:19.192Z,28.9
2018-03-04T01:26:19.637Z,35.7
2018-03-04T01:28:19.356Z,24.4
2018-03-04T01:30:19.108Z,33.1
2018-03-04T01:32:18.840Z,21.3
2018-03-04T01:34:19.565Z,26.5
2018-03-04T01:36:19.017Z,54.9
2018-03-04T01:38:18.756Z,24.6
2018-03-04T01:40:18.901Z,36.9
2018-03-04T01:42:19.632Z,25.4
2018-03-04T01:44:19.366Z,30.9
2018-03-04T01:46:18.830Z,34.6
2018-03-04T01:48:19.571Z,32.3
2018-03-04T01:50:19.322Z,23.5
2018-03-04T01:52:19.041Z,22.9
2018-03-04T01:54:18.762Z,23.2
2018-03-04T01:56:19.207Z,34.8
2018-03-04T01:58:18.933Z,35.1
2018-03-04T02:00:18.708Z,32.6
2018-03-04T02:02:19.438Z,29.1
2018-03-04T02:04:19.166Z,21.6
2018-03-04T02:06:19.612Z,20.4
2018-03-04T02:08:19.335Z,26.6
2018-03-04T02:10:19.600Z,23.3
2018-03-04T02:12:19.456Z,31.5
2018-03-04T02:14:19.324Z,32.9
2018-03-04T02:16:18.998Z,24.6
2018-03-04T02:18:18.879Z,20
2018-03-04T02:20:19.758Z,28.8
2018-03-04T02:22:19.617Z,29.7
2018-03-04T02:24:19.478Z,27.4
2018-03-04T02:26:19.167Z,30.7
2018-03-04T02:28:19.002Z,27.8
2018-03-04T02:30:18.859Z,20
2018-03-04T02:32:19.725Z,36.2
2018-03-04T02:34:19.596Z,33.5
2018-03-04T02:36:19.249Z,33.3
2018-03-04T02:38:19.077Z,13.4
2018-03-04T02:40:19.405Z,18.9
2018-03-04T02:42:19.222Z,28.5
2018-03-04T02:44:19.078Z,26.1
2018-03-04T02:46:18.697Z,26.1
2018-03-04T02:48:19.567Z,38.5
2018-03-04T02:50:19.456Z,22.8
2018-03-04T02:52:19.299Z,25.5
2018-03-04T02:54:19.196Z,31.3
2018-03-04T02:56:18.880Z,28.6
2018-03-04T02:58:19.705Z,21.9
2018-03-04T03:00:19.562Z,38.3
2018-03-04T03:02:19.420Z,29.1
2018-03-04T03:04:19.288Z,29.6
2018-03-04T03:06:18.934Z,24.9
2018-03-04T03:08:18.752Z,38.6
2018-03-04T03:10:19.028Z,33.9
2018-03-04T03:12:18.851Z,16.6
2018-03-04T03:14:19.714Z,20.5
2018-03-04T03:16:19.359Z,24.9
2018-03-04T03:18:19.239Z,34.1
2018-03-04T03:20:19.105Z,21.3
2018-03-04T03:22:18.962Z,25.7
2018-03-04T03:24:18.799Z,30.6
2018-03-04T03:26:19.469Z,22.2
2018-03-04T03:28:19.317Z,31.7
2018-03-04T03:30:19.112Z,28.1
2018-03-04T03:32:18.873Z,17.1
2018-03-04T03:34:19.598Z,46.1
2018-03-04T03:36:19.083Z,23.2
2018-03-04T03:38:18.855Z,21.6
2018-03-04T03:40:19.153Z,30
2018-03-04T03:42:18.848Z,34.7
2018-03-04T03:44:19.604Z,23.6
2018-03-04T03:46:19.114Z,24.4
2018-03-04T03:48:18.830Z,31.3
2018-03-04T03:50:19.608Z,29.9
2018-03-04T03:52:19.310Z,29.3
2018-03-04T03:54:19.074Z,24
2018-03-04T03:56:19.577Z,31.4
2018-03-04T03:58:19.292Z,47.4
2018-03-04T04:00:19.056Z,24.6
2018-03-04T04:02:18.811Z,24.4
2018-03-04T04:04:19.554Z,21.7
2018-03-04T04:06:19.063Z,24.3
2018-03-04T04:08:18.802Z,26
2018-03-04T04:10:19.086Z,20
2018-03-04T04:12:18.790Z,33.4
2018-03-04T04:14:19.571Z,29.1
2018-03-04T04:16:19.096Z,14.5
2018-03-04T04:18:18.860Z,27.7
2018-03-04T04:20:19.629Z,38.9
2018-03-04T04:22:19.320Z,22.8
2018-03-04T04:24:19.108Z,16.5
2018-03-04T04:26:19.607Z,32.8
2018-03-04T04:28:19.294Z,51
2018-03-04T04:30:19.061Z,33.9
2018-03-04T04:32:18.820Z,32.5
2018-03-04T04:34:19.563Z,26.3
2018-03-04T04:36:19.063Z,29.1
2018-03-04T04:38:18.804Z,25.6
2018-03-04T04:40:18.950Z,20.9
2018-03-04T04:42:18.700Z,23.4
2018-03-04T04:44:19.441Z,29.2
2018-03-04T04:46:18.866Z,23.7
2018-03-04T04:48:19.569Z,22
2018-03-04T04:50:19.325Z,48.1
2018-03-04T04:52:19.087Z,26.2
2018-03-04T04:54:18.811Z,32.5
2018-03-04T04:56:19.301Z,25.5
2018-03-04T04:58:19.041Z,31.5
2018-03-04T05:00:18.786Z,39.3
2018-03-04T05:02:19.566Z,45.3
2018-03-04T05:04:19.274Z,42.4
2018-03-04T05:06:18.744Z,28.1
2018-03-04T05:08:19.496Z,29.2
2018-03-04T05:10:18.766Z,33.5
2018-03-04T05:12:19.490Z,31.8
2018-03-04T05:14:19.241Z,15.2
2018-03-04T05:16:18.811Z,26
2018-03-04T05:18:19.626Z,29
2018-03-04T05:20:19.380Z,27
2018-03-04T05:22:19.137Z,36.8
2018-03-04T05:24:18.842Z,25.4
2018-03-04T05:26:19.327Z,29
2018-03-04T05:28:19.068Z,23.3
2018-03-04T05:30:18.801Z,24.6
2018-03-04T05:32:19.563Z,36
2018-03-04T05:34:19.281Z,28.7
2018-03-04T05:36:18.738Z,28.6
2018-03-04T05:38:19.429Z,23.7
2018-03-04T05:40:19.607Z,33.4
2018-03-04T05:42:19.365Z,30.8
2018-03-04T05:44:19.070Z,30
2018-03-04T05:46:19.529Z,18.3
2018-03-04T05:48:19.268Z,35.7
2018-03-04T05:50:19.020Z,38.8
2018-03-04T05:52:18.766Z,33.4
2018-03-04T05:54:19.484Z,25.1
2018-03-04T05:56:18.953Z,16.4
2018-03-04T05:58:18.725Z,21.2
2018-03-04T06:00:19.498Z,21.5
2018-03-04T06:02:19.248Z,37.6
2018-03-04T06:04:18.948Z,44.3
2018-03-04T06:06:19.399Z,27.2
2018-03-04T06:08:19.148Z,22.1
2018-03-04T06:10:19.302Z,30.9
2018-03-04T06:12:19.073Z,38.9
2018-03-04T06:14:18.847Z,38
2018-03-04T06:16:19.296Z,27.5
2018-03-04T06:18:19.115Z,34.5
2018-03-04T06:20:18.902Z,35.6
2018-03-04T06:22:19.629Z,22.8
2018-03-04T06:24:19.399Z,36.9
2018-03-04T06:26:19.390Z,32.1
2018-03-04T06:28:19.143Z,34.5
2018-03-04T06:30:18.952Z,35.7
2018-03-04T06:32:18.664Z,49.1
2018-03-04T06:34:19.416Z,22.9
2018-03-04T06:36:19.484Z,38.3
2018-03-04T06:38:19.251Z,26.6
2018-03-04T06:40:19.512Z,31.3
2018-03-04T06:42:19.259Z,32.9
2018-03-04T06:44:18.984Z,36
2018-03-04T06:46:19.492Z,28.3
2018-03-04T06:48:19.468Z,37.7
2018-03-04T06:50:19.255Z,36.7
2018-03-04T06:52:19.011Z,42.6
2018-03-04T06:54:18.754Z,31.7
2018-03-04T06:56:19.286Z,29.2
2018-03-04T06:58:19.043Z,42.5
2018-03-04T07:00:18.786Z,29.9
2018-03-04T07:02:19.550Z,19.7
2018-03-04T07:04:19.270Z,31.8
2018-03-04T07:06:18.734Z,29
2018-03-04T07:08:19.486Z,31.8
2018-03-04T07:10:18.763Z,30.1
2018-03-04T07:12:19.497Z,29.7
2018-03-04T07:14:19.250Z,29
2018-03-04T07:16:18.786Z,33.6
2018-03-04T07:18:19.604Z,42.6
2018-03-04T07:20:19.356Z,32.8
2018-03-04T07:22:19.105Z,29.4
2018-03-04T07:24:18.816Z,29.4
2018-03-04T07:26:19.320Z,35.9
2018-03-04T07:28:19.072Z,30.3
2018-03-04T07:30:18.812Z,36.2
2018-03-04T07:32:19.568Z,37.2
2018-03-04T07:34:19.271Z,28.7
2018-03-04T07:36:18.785Z,32.7
2018-03-04T07:38:19.550Z,33.2
2018-03-04T07:40:18.826Z,39.1
2018-03-04T07:42:19.540Z,41.5
2018-03-04T07:44:19.293Z,37.3
2018-03-04T07:46:18.795Z,46.2
2018-03-04T07:48:19.511Z,33.6
2018-03-04T07:50:19.287Z,33.8
2018-03-04T07:52:19.039Z,20.3
2018-03-04T07:54:18.760Z,36.2
2018-03-04T07:56:19.282Z,42.2
2018-03-04T07:58:19.056Z,31.5
2018-03-04T08:00:18.809Z,45
2018-03-04T08:02:19.578Z,45.5
2018-03-04T08:04:19.302Z,41.1
2018-03-04T08:06:18.752Z,26.7
2018-03-04T08:08:19.536Z,38.9
2018-03-04T08:10:18.828Z,36.4
2018-03-04T08:12:19.556Z,45.8
2018-03-04T08:14:19.316Z,38.6
2018-03-04T08:16:18.873Z,33.6
2018-03-04T08:18:18.755Z,28.4
2018-03-04T08:20:19.556Z,26.2
2018-03-04T08:22:19.276Z,42.8
2018-03-04T08:24:19.043Z,31.6
2018-03-04T08:26:19.585Z,32.6
2018-03-04T08:28:19.290Z,40.8
2018-03-04T08:30:19.082Z,41.3
2018-03-04T08:32:18.857Z,35.6
2018-03-04T08:34:19.592Z,31.8
2018-03-04T08:36:19.090Z,36.8
2018-03-04T08:38:18.859Z,34.4
2018-03-04T08:40:19.125Z,34.6
2018-03-04T08:42:18.900Z,29.1
2018-03-04T08:44:18.671Z,25.3
2018-03-04T08:46:19.166Z,33.9
2018-03-04T08:48:18.893Z,26.6
2018-03-04T08:50:19.676Z,32.2
2018-03-04T08:52:19.386Z,35.7
2018-03-04T08:54:19.119Z,37.5
2018-03-04T08:56:19.614Z,32.6
2018-03-04T08:58:19.386Z,31.1
2018-03-04T09:00:19.142Z,49
2018-03-04T09:02:19.084Z,28.9
2018-03-04T09:04:18.859Z,47
2018-03-04T09:06:19.377Z,34.2
2018-03-04T09:08:19.078Z,40.6
2018-03-04T09:10:19.276Z,31.5
2018-03-04T09:12:19.040Z,25.9
2018-03-04T09:14:18.787Z,44.1
2018-03-04T09:16:19.270Z,33.7
2018-03-04T09:18:19.104Z,42.6
2018-03-04T09:20:18.901Z,37.3
2018-03-04T09:22:19.634Z,40.4
2018-03-04T09:24:19.395Z,35.3
2018-03-04T09:26:18.930Z,34.8
2018-03-04T09:28:18.638Z,32.4
2018-03-04T09:30:19.429Z,58.4
2018-03-04T09:32:19.184Z,32.9
2018-03-04T09:34:18.911Z,41.3
2018-03-04T09:36:18.715Z,44.9
2018-03-04T09:38:19.432Z,50.8
2018-03-04T09:40:18.657Z,37.2
2018-03-04T09:42:19.414Z,37.3
2018-03-04T09:44:19.172Z,29.8
2018-03-04T09:46:19.628Z,35.9
2018-03-04T09:48:19.400Z,42.2
2018-03-04T09:50:19.211Z,36.9
2018-03-04T09:52:18.933Z,31.3
2018-03-04T09:54:18.709Z,43.7
2018-03-04T09:56:19.180Z,32.1
2018-03-04T09:58:18.913Z,45.7
2018-03-04T10:00:19.701Z,43.4
2018-03-04T10:02:19.412Z,49.2
2018-03-04T10:04:19.186Z,30.4
2018-03-04T10:06:19.201Z,57.4
2018-03-04T10:08:18.958Z,46.8
2018-03-04T10:10:19.215Z,37.9
2018-03-04T10:12:18.920Z,45.6
2018-03-04T10:14:19.695Z,46.6
2018-03-04T10:16:19.199Z,42.4
2018-03-04T10:18:19.028Z,44.6
2018-03-04T10:20:18.758Z,33.9
2018-03-04T10:22:19.534Z,42.5
2018-03-04T10:24:19.297Z,44.5
2018-03-04T10:26:18.856Z,41.4
2018-03-04T10:28:19.600Z,45.1
2018-03-04T10:30:19.399Z,44
2018-03-04T10:32:19.209Z,36.8
2018-03-04T10:34:18.940Z,40.4
2018-03-04T10:36:19.436Z,57.1
2018-03-04T10:38:19.221Z,38.6
2018-03-04T10:40:19.505Z,43.1
2018-03-04T10:42:19.268Z,53.9
2018-03-04T10:44:19.017Z,45.1
2018-03-04T10:46:19.508Z,47.5
2018-03-04T10:48:19.293Z,42.2
2018-03-04T10:50:19.056Z,40
2018-03-04T10:52:18.833Z,47.1
2018-03-04T10:54:19.571Z,37.8
2018-03-04T10:56:19.040Z,36.8
2018-03-04T10:58:18.819Z,51.2
2018-03-04T11:00:19.571Z,49.1
2018-03-04T11:02:19.322Z,41.1
2018-03-04T11:04:19.085Z,39.8
2018-03-04T11:06:19.610Z,38.8
2018-03-04T11:08:19.359Z,52.7
2018-03-04T11:10:19.666Z,52.8
2018-03-04T11:12:19.447Z,46.7
2018-03-04T11:14:19.229Z,42.8
2018-03-04T11:16:18.765Z,43
2018-03-04T11:18:19.607Z,52.9
2018-03-04T11:20:19.386Z,38.6
2018-03-04T11:22:19.148Z,49.8
2018-03-04T11:24:18.876Z,53.5
2018-03-04T11:26:19.357Z,45.5
2018-03-04T11:28:19.133Z,33.3
2018-03-04T11:30:18.873Z,37
2018-03-04T11:32:19.675Z,50.1
2018-03-04T11:34:19.436Z,50.7
2018-03-04T11:36:19.009Z,43.1
2018-03-04T11:38:18.727Z,50.9
2018-03-04T11:40:18.988Z,54.2
2018-03-04T11:42:18.745Z,55.8
2018-03-04T11:44:19.459Z,49.9
2018-03-04T11:46:18.901Z,46
2018-03-04T11:48:19.673Z,41.6
2018-03-04T11:50:19.442Z,43.2
2018-03-04T11:52:19.222Z,54.2
2018-03-04T11:54:18.993Z,47.1
2018-03-04T11:56:19.559Z,50.4
2018-03-04T11:58:19.316Z,48.5
2018-03-04T12:00:19.112Z,43.5
2018-03-04T12:02:18.883Z,46.8
2018-03-04T12:04:19.638Z,47.8
2018-03-04T12:06:19.130Z,40.6
2018-03-04T12:08:18.900Z,56.7
2018-03-04T12:10:19.200Z,53.5
2018-03-04T12:12:18.946Z,57.5
2018-03-04T12:14:18.691Z,53.1
2018-03-04T12:16:19.214Z,48.5
2018-03-04T12:18:19.067Z,56.8
2018-03-04T12:20:18.871Z,45.7
2018-03-04T12:22:19.617Z,48.9
2018-03-04T12:24:19.398Z,49.7
2018-03-04T12:26:19.419Z,44.2
2018-03-04T12:28:19.225Z,46.3
2018-03-04T12:30:19.041Z,43.6
2018-03-04T12:32:18.830Z,51.2
2018-03-04T12:34:19.606Z,49.3
2018-03-04T12:36:19.130Z,40.5
2018-03-04T12:38:18.917Z,40
2018-03-04T12:40:19.218Z,45.1
2018-03-04T12:42:18.997Z,45
2018-03-04T12:44:18.755Z,58.3
2018-03-04T12:46:18.803Z,45.3
2018-03-04T12:48:19.556Z,40.5
2018-03-04T12:50:19.372Z,48
2018-03-04T12:52:19.161Z,62.2
2018-03-04T12:54:18.940Z,51.7
2018-03-04T12:56:20.110Z,61.6
2018-03-04T12:58:19.074Z,54.3
2018-03-04T13:00:19.146Z,42.6
2018-03-04T13:02:18.938Z,53.6
2018-03-04T13:04:18.729Z,50.2
2018-03-04T13:06:19.265Z,57.3
2018-03-04T13:08:19.027Z,57
2018-03-04T13:10:19.274Z,49.1
2018-03-04T13:12:19.050Z,47.7
2018-03-04T13:14:18.847Z,53.8
2018-03-04T13:16:19.322Z,43.1
2018-03-04T13:18:19.233Z,48.5
2018-03-04T13:20:19.048Z,59.5
2018-03-04T13:22:18.892Z,43.5
2018-03-04T13:24:19.619Z,67.3
2018-03-04T13:26:19.224Z,53.2
2018-03-04T13:28:18.968Z,41.7
2018-03-04T13:30:18.792Z,44.8
2018-03-04T13:32:19.594Z,50.7
2018-03-04T13:34:19.388Z,48.3
2018-03-04T13:36:18.851Z,50.5
2018-03-04T13:38:19.657Z,56.2
2018-03-04T13:40:18.944Z,48.1
2018-03-04T13:42:18.721Z,58.3
2018-03-04T13:44:19.463Z,44.4
2018-03-04T13:46:18.963Z,70.2
2018-03-04T13:48:18.750Z,41.4
2018-03-04T13:50:19.501Z,49
2018-03-04T13:52:19.262Z,48.1
2018-03-04T13:54:19.048Z,49.1
2018-03-04T13:56:19.663Z,63.3
2018-03-04T13:58:19.405Z,48
2018-03-04T14:00:19.186Z,55
2018-03-04T14:02:18.986Z,46.6
2018-03-04T14:04:18.767Z,55.6
2018-03-04T14:06:19.349Z,51.3
2018-03-04T14:08:19.096Z,47.1
2018-03-04T14:10:19.292Z,55.9
2018-03-04T14:12:19.089Z,45.7
2018-03-04T14:14:18.883Z,44
2018-03-04T14:16:19.404Z,49.3
2018-03-04T14:18:19.231Z,51.6
2018-03-04T14:20:19.022Z,56.6
2018-03-04T14:22:18.823Z,54.7
2018-03-04T14:24:19.569Z,48.6
2018-03-04T14:26:19.037Z,42.3
2018-03-04T14:28:18.829Z,56.3
2018-03-04T14:30:19.597Z,71.3
2018-03-04T14:32:19.376Z,64
2018-03-04T14:34:19.174Z,79.6
2018-03-04T14:36:18.718Z,48.1
2018-03-04T14:38:19.482Z,55.8
2018-03-04T14:40:18.831Z,49.4
2018-03-04T14:42:19.585Z,46.6
2018-03-04T14:44:19.380Z,54.4
2018-03-04T14:46:18.905Z,45.3
2018-03-04T14:48:19.668Z,57.3
2018-03-04T14:50:19.445Z,48.6
2018-03-04T14:52:19.239Z,46.9
2018-03-04T14:54:19.032Z,40.2
2018-03-04T14:56:19.584Z,47
2018-03-04T14:58:19.317Z,48.2
2018-03-04T15:00:19.127Z,50.3
2018-03-04T15:02:18.909Z,53.8
2018-03-04T15:04:19.675Z,52.6
2018-03-04T15:06:19.155Z,51
2018-03-04T15:08:18.959Z,48.7
2018-03-04T15:10:19.278Z,44.5
2018-03-04T15:12:19.067Z,58.3
2018-03-04T15:14:18.868Z,55.8
2018-03-04T15:16:19.345Z,54.2
2018-03-04T15:18:19.193Z,59.4
2018-03-04T15:20:19.004Z,71.5
2018-03-04T15:22:18.794Z,60.8
2018-03-04T15:24:19.563Z,54.4
2018-03-04T15:26:19.057Z,60.3
2018-03-04T15:28:18.840Z,54.6
2018-03-04T15:30:19.621Z,51.3
2018-03-04T15:32:19.391Z,52.6
2018-03-04T15:34:19.182Z,48.1
2018-03-04T15:36:18.748Z,54.3
2018-03-04T15:38:19.495Z,48.5
2018-03-04T15:40:18.829Z,44.4
2018-03-04T15:42:19.598Z,45.8
2018-03-04T15:44:19.385Z,53.3
2018-03-04T15:46:18.892Z,48.8
2018-03-04T15:48:19.684Z,48.7
2018-03-04T15:50:19.456Z,57.9
2018-03-04T15:52:19.246Z,50.7
2018-03-04T15:54:19.036Z,53.1
2018-03-04T15:56:19.082Z,44
2018-03-04T15:58:18.868Z,45.1
2018-03-04T16:00:19.704Z,48.5
2018-03-04T16:02:19.462Z,48.9
2018-03-04T16:04:19.254Z,52.7
2018-03-04T16:06:18.776Z,53.4
2018-03-04T16:08:19.567Z,39.3
2018-03-04T16:10:18.872Z,51.6
2018-03-04T16:12:19.678Z,52.5
2018-03-04T16:14:19.441Z,44.2
2018-03-04T16:16:18.922Z,51.8
2018-03-04T16:18:18.768Z,56.3
2018-03-04T16:20:19.513Z,61.7
2018-03-04T16:22:19.290Z,61.2
2018-03-04T16:24:19.073Z,62.8
2018-03-04T16:26:19.628Z,46.6
2018-03-04T16:28:19.383Z,45.9
2018-03-04T16:30:19.160Z,43.1
2018-03-04T16:32:18.947Z,55.2
2018-03-04T16:34:18.663Z,42.5
2018-03-04T16:36:19.136Z,56.7
2018-03-04T16:38:18.939Z,43.7
2018-03-04T16:40:19.239Z,53.1
2018-03-04T16:42:19.030Z,58.5
2018-03-04T16:44:18.829Z,64.8
2018-03-04T16:46:18.934Z,49.8
2018-03-04T16:48:18.735Z,45.5
2018-03-04T16:50:19.575Z,54
2018-03-04T16:52:19.459Z,46
2018-03-04T16:54:19.319Z,58.9
2018-03-04T16:56:18.872Z,45.7
2018-03-04T16:58:19.639Z,56.9
2018-03-04T17:00:19.575Z,45.4
2018-03-04T17:02:19.373Z,49.6
2018-03-04T17:04:19.153Z,49
2018-03-04T17:06:18.782Z,50.7
2018-03-04T17:08:19.565Z,51.8
2018-03-04T17:10:18.866Z,52.2
2018-03-04T17:12:19.628Z,47.5
2018-03-04T17:14:19.406Z,42
2018-03-04T17:16:18.903Z,60.1
2018-03-04T17:18:18.747Z,47.5
2018-03-04T17:20:19.489Z,52.6
2018-03-04T17:22:19.254Z,43.4
2018-03-04T17:24:19.047Z,53.2
2018-03-04T17:26:19.610Z,53.5
2018-03-04T17:28:19.369Z,69.4
2018-03-04T17:30:19.151Z,45.1
2018-03-04T17:32:18.921Z,55.4
2018-03-04T17:34:19.676Z,50.2
2018-03-04T17:36:19.158Z,44.8
2018-03-04T17:38:18.942Z,49.4
2018-03-04T17:40:19.232Z,46.2
2018-03-04T17:42:18.950Z,65.9
2018-03-04T17:44:18.694Z,49.9
2018-03-04T17:46:19.251Z,54.3
2018-03-04T17:48:19.031Z,48.8
2018-03-04T17:50:18.853Z,47.5
2018-03-04T17:52:19.611Z,55.9
2018-03-04T17:54:19.381Z,48.7
2018-03-04T17:56:18.931Z,44.1
2018-03-04T17:58:18.645Z,44.8
2018-03-04T18:00:19.458Z,47
2018-03-04T18:02:19.255Z,45.7
2018-03-04T18:04:19.034Z,43.5
2018-03-04T18:06:19.572Z,35.5
2018-03-04T18:08:19.345Z,37.9
2018-03-04T18:10:19.594Z,40.2
2018-03-04T18:12:19.378Z,36.1
2018-03-04T18:14:19.191Z,46.4
2018-03-04T18:16:19.633Z,42
2018-03-04T18:18:19.471Z,49.4
2018-03-04T18:20:19.281Z,42.4
2018-03-04T18:22:19.151Z,56.9
2018-03-04T18:24:18.890Z,49.9
2018-03-04T18:26:19.375Z,44.3
2018-03-04T18:28:19.152Z,46.1
2018-03-04T18:30:18.902Z,40.6
2018-03-04T18:32:19.677Z,35.6
2018-03-04T18:34:19.453Z,51.4
2018-03-04T18:36:19.048Z,40.2
2018-03-04T18:38:18.832Z,41.6
2018-03-04T18:40:19.133Z,47.7
2018-03-04T18:42:18.885Z,33.9
2018-03-04T18:44:19.677Z,47.3
2018-03-04T18:46:19.229Z,41.1
2018-03-04T18:48:19.014Z,39.8
2018-03-04T18:50:18.764Z,43.2
2018-03-04T18:52:19.562Z,43.8
2018-03-04T18:54:19.339Z,39.1
2018-03-04T18:56:19.388Z,45.7
2018-03-04T18:58:19.186Z,42.1
2018-03-04T19:00:18.932Z,35.2
2018-03-04T19:02:18.677Z,34.4
2018-03-04T19:04:19.468Z,47.1
2018-03-04T19:06:19.021Z,37.3
2018-03-04T19:08:18.799Z,28.4
2018-03-04T19:10:18.971Z,35.7
2018-03-04T19:12:18.741Z,41.1
2018-03-04T19:14:19.473Z,41.8
2018-03-04T19:16:19.068Z,37.7
2018-03-04T19:18:18.865Z,47.6
2018-03-04T19:20:19.683Z,38.3
2018-03-04T19:22:19.468Z,41.9
2018-03-04T19:24:19.234Z,43.6
2018-03-04T19:26:18.680Z,42
2018-03-04T19:28:19.466Z,34.1
2018-03-04T19:30:19.219Z,31.5
2018-03-04T19:32:18.993Z,41.5
2018-03-04T19:34:18.769Z,39.3
2018-03-04T19:36:19.327Z,43.7
2018-03-04T19:38:19.059Z,43.2
2018-03-04T19:40:19.256Z,50.7
2018-03-04T19:42:19.033Z,47.7
2018-03-04T19:44:18.811Z,47.6
2018-03-04T19:46:19.259Z,36.9
2018-03-04T19:48:19.030Z,39.7
2018-03-04T19:50:18.761Z,40.7
2018-03-04T19:52:19.546Z,47.4
2018-03-04T19:54:19.320Z,47.3
2018-03-04T19:56:18.878Z,37
2018-03-04T19:58:19.643Z,31.8
2018-03-04T20:00:19.451Z,49.2
2018-03-04T20:02:19.313Z,45
2018-03-04T20:04:19.095Z,50.6
2018-03-04T20:06:19.646Z,38.3
2018-03-04T20:08:19.407Z,48.8
2018-03-04T20:10:19.673Z,37.2
2018-03-04T20:12:19.443Z,43.5
2018-03-04T20:14:19.222Z,39.1
2018-03-04T20:16:18.791Z,43.5
2018-03-04T20:18:19.600Z,44.4
2018-03-04T20:20:19.377Z,45.2
2018-03-04T20:22:19.145Z,43.2
2018-03-04T20:24:18.926Z,58.5
2018-03-04T20:26:19.417Z,60.7
2018-03-04T20:28:19.202Z,47.5
2018-03-04T20:30:18.999Z,48.9
2018-03-04T20:32:18.743Z,52.4
2018-03-04T20:34:19.468Z,52.5
2018-03-04T20:36:19.035Z,49
2018-03-04T20:38:18.813Z,49.9
2018-03-04T20:40:18.972Z,53.1
2018-03-04T20:42:18.739Z,41.2
2018-03-04T20:44:19.465Z,48.9
2018-03-04T20:46:19.071Z,41.2
2018-03-04T20:48:18.818Z,49.5
2018-03-04T20:50:19.765Z,50.5
2018-03-04T20:52:19.564Z,38.6
2018-03-04T20:54:19.330Z,47.9
2018-03-04T20:56:18.865Z,53.9
2018-03-04T20:58:19.605Z,61.2
2018-03-04T21:00:19.402Z,46.9
2018-03-04T21:02:19.176Z,55.5
2018-03-04T21:04:18.940Z,43.5
2018-03-04T21:06:19.422Z,64.4
2018-03-04T21:08:19.220Z,48.7
2018-03-04T21:10:19.509Z,61.4
2018-03-04T21:12:19.276Z,48.5
2018-03-04T21:14:19.045Z,38.3
2018-03-04T21:16:19.549Z,43
2018-03-04T21:18:19.401Z,48.3
2018-03-04T21:20:19.200Z,51
2018-03-04T21:22:18.920Z,43.6
2018-03-04T21:24:19.684Z,49.3
2018-03-04T21:26:19.251Z,48.4
2018-03-04T21:28:18.964Z,56.2
2018-03-04T21:30:18.748Z,48.3
2018-03-04T21:32:19.512Z,49.8
2018-03-04T21:34:19.255Z,41.9
2018-03-04T21:36:18.901Z,48.3
2018-03-04T21:38:18.692Z,45.1
2018-03-04T21:40:18.922Z,40.8
2018-03-04T21:42:19.657Z,64.8
2018-03-04T21:44:19.400Z,60.5
2018-03-04T21:46:18.936Z,44
2018-03-04T21:48:18.711Z,55.7
2018-03-04T21:50:19.456Z,49
2018-03-04T21:52:19.227Z,46.1
2018-03-04T21:54:18.996Z,53.6
2018-03-04T21:56:19.543Z,42.8
2018-03-04T21:58:19.325Z,36.7
2018-03-04T22:00:19.109Z,47.7
2018-03-04T22:02:18.880Z,32.7
2018-03-04T22:04:19.626Z,46.3
2018-03-04T22:06:19.106Z,49.7
2018-03-04T22:08:18.861Z,54.4
2018-03-04T22:10:19.066Z,45.5
2018-03-04T22:12:18.791Z,37
2018-03-04T22:14:19.570Z,47.4
2018-03-04T22:16:19.141Z,42.8
2018-03-04T22:18:18.973Z,38.9
2018-03-04T22:20:18.719Z,41.7
2018-03-04T22:22:19.483Z,44.1
2018-03-04T22:24:19.234Z,45.2
2018-03-04T22:26:18.678Z,44.8
2018-03-04T22:28:19.395Z,42.5
2018-03-04T22:30:19.158Z,65.3
2018-03-04T22:32:18.924Z,44.4
2018-03-04T22:34:19.667Z,43.5
2018-03-04T22:36:19.127Z,50.2
2018-03-04T22:38:18.904Z,46.8
2018-03-04T22:40:19.203Z,41.6
2018-03-04T22:42:18.905Z,53.5
2018-03-04T22:44:19.681Z,44.4
2018-03-04T22:46:19.227Z,42.5
2018-03-04T22:48:19.004Z,50.3
2018-03-04T22:50:18.735Z,44.6
2018-03-04T22:52:19.439Z,59.4
2018-03-04T22:54:19.185Z,60.8
2018-03-04T22:56:18.663Z,40.9
2018-03-04T22:58:19.389Z,43.6
2018-03-04T23:00:19.180Z,50.1
2018-03-04T23:02:18.948Z,47.3
2018-03-04T23:04:18.640Z,37.1
2018-03-04T23:06:19.118Z,36.8
2018-03-04T23:08:18.881Z,50.8
2018-03-04T23:10:19.170Z,47.5
2018-03-04T23:12:18.899Z,42
2018-03-04T23:14:19.669Z,44.8
2018-03-04T23:16:19.201Z,52.8
2018-03-04T23:18:19.037Z,42.1
2018-03-04T23:20:18.844Z,36.2
2018-03-04T23:22:19.606Z,67.1
2018-03-04T23:24:19.381Z,40.4
2018-03-04T23:26:18.918Z,44.2
2018-03-04T23:28:19.660Z,50.6
2018-03-04T23:30:19.460Z,42.8
2018-03-04T23:32:19.227Z,37.1
2018-03-04T23:34:18.967Z,42.7
2018-03-04T23:36:19.444Z,39.8
2018-03-04T23:38:19.207Z,39.6
2018-03-04T23:40:19.501Z,60.7
2018-03-04T23:42:19.256Z,30.2
2018-03-04T23:44:19.000Z,41.8
2018-03-04T23:46:19.562Z,47.9
2018-03-04T23:48:19.336Z,43
2018-03-04T23:50:19.075Z,37.9
2018-03-04T23:52:18.838Z,38.8
2018-03-04T23:54:19.559Z,46.1
2018-03-04T23:56:19.017Z,38.3
2018-03-04T23:58:18.787Z,50.5
